sensor_id;sensor_type;location;lat;lon;timestamp;temperature;humidity
16412;DHT22;8315;52.104;6.304;2022-09-21T00:00:23;9.70;98.40
16412;DHT22;8315;52.104;6.304;2022-09-21T00:02:51;9.70;98.40
16412;DHT22;8315;52.104;6.304;2022-09-21T00:05:21;9.60;98.40
16412;DHT22;8315;52.104;6.304;2022-09-21T00:07:48;9.40;98.40
16412;DHT22;8315;52.104;6.304;2022-09-21T00:10:15;9.40;98.40
16412;DHT22;8315;52.104;6.304;2022-09-21T00:12:43;9.40;98.40
16412;DHT22;8315;52.104;6.304;2022-09-21T00:15:14;9.50;98.40
16412;DHT22;8315;52.104;6.304;2022-09-21T00:17:43;9.50;98.40
16412;DHT22;8315;52.104;6.304;2022-09-21T00:20:11;9.60;98.40
16412;DHT22;8315;52.104;6.304;2022-09-21T00:22:39;9.60;98.40
16412;DHT22;8315;52.104;6.304;2022-09-21T00:25:06;9.50;98.40
16412;DHT22;8315;52.104;6.304;2022-09-21T00:27:34;9.40;98.40
16412;DHT22;8315;52.104;6.304;2022-09-21T00:30:02;9.40;98.40
16412;DHT22;8315;52.104;6.304;2022-09-21T00:32:34;9.50;98.40
16412;DHT22;8315;52.104;6.304;2022-09-21T00:35:02;9.40;98.40
16412;DHT22;8315;52.104;6.304;2022-09-21T00:37:32;9.40;98.40
16412;DHT22;8315;52.104;6.304;2022-09-21T00:39:59;9.40;98.40
16412;DHT22;8315;52.104;6.304;2022-09-21T00:42:28;9.30;98.40
16412;DHT22;8315;52.104;6.304;2022-09-21T00:44:55;9.30;98.40
16412;DHT22;8315;52.104;6.304;2022-09-21T00:47:25;9.30;98.40
16412;DHT22;8315;52.104;6.304;2022-09-21T00:49:56;9.30;98.40
16412;DHT22;8315;52.104;6.304;2022-09-21T00:52:24;9.20;98.40
16412;DHT22;8315;52.104;6.304;2022-09-21T00:54:53;9.20;98.40
16412;DHT22;8315;52.104;6.304;2022-09-21T00:57:23;9.10;98.40
16412;DHT22;8315;52.104;6.304;2022-09-21T00:59:53;9.00;98.40
16412;DHT22;8315;52.104;6.304;2022-09-21T01:02:21;9.00;98.40
16412;DHT22;8315;52.104;6.304;2022-09-21T01:04:49;9.00;98.40
16412;DHT22;8315;52.104;6.304;2022-09-21T01:07:21;9.00;98.40
16412;DHT22;8315;52.104;6.304;2022-09-21T01:09:51;9.00;98.40
16412;DHT22;8315;52.104;6.304;2022-09-21T01:12:24;9.00;98.40
16412;DHT22;8315;52.104;6.304;2022-09-21T01:15:02;8.90;98.40
16412;DHT22;8315;52.104;6.304;2022-09-21T01:17:35;8.80;98.40
16412;DHT22;8315;52.104;6.304;2022-09-21T01:20:14;8.80;98.40
16412;DHT22;8315;52.104;6.304;2022-09-21T01:22:56;8.70;98.40
16412;DHT22;8315;52.104;6.304;2022-09-21T01:25:34;8.70;98.40
16412;DHT22;8315;52.104;6.304;2022-09-21T01:28:07;8.80;98.40
16412;DHT22;8315;52.104;6.304;2022-09-21T01:30:43;8.70;98.40
16412;DHT22;8315;52.104;6.304;2022-09-21T01:33:12;8.60;98.40
16412;DHT22;8315;52.104;6.304;2022-09-21T01:35:42;8.60;98.40
16412;DHT22;8315;52.104;6.304;2022-09-21T01:38:13;8.50;98.40
16412;DHT22;8315;52.104;6.304;2022-09-21T01:40:45;8.40;98.40
16412;DHT22;8315;52.104;6.304;2022-09-21T01:43:17;8.50;98.40
16412;DHT22;8315;52.104;6.304;2022-09-21T01:45:49;8.50;98.40
16412;DHT22;8315;52.104;6.304;2022-09-21T01:48:19;8.50;98.40
16412;DHT22;8315;52.104;6.304;2022-09-21T01:50:49;8.40;98.40
16412;DHT22;8315;52.104;6.304;2022-09-21T01:53:17;8.40;98.40
16412;DHT22;8315;52.104;6.304;2022-09-21T01:55:49;8.30;98.40
16412;DHT22;8315;52.104;6.304;2022-09-21T01:58:18;8.30;98.40
16412;DHT22;8315;52.104;6.304;2022-09-21T02:00:53;8.30;98.40
16412;DHT22;8315;52.104;6.304;2022-09-21T02:03:23;8.20;98.40
16412;DHT22;8315;52.104;6.304;2022-09-21T02:05:52;8.20;98.40
16412;DHT22;8315;52.104;6.304;2022-09-21T02:08:19;8.20;98.40
16412;DHT22;8315;52.104;6.304;2022-09-21T02:10:47;8.20;98.40
16412;DHT22;8315;52.104;6.304;2022-09-21T02:13:16;8.20;98.40
16412;DHT22;8315;52.104;6.304;2022-09-21T02:15:47;8.20;98.40
16412;DHT22;8315;52.104;6.304;2022-09-21T02:18:26;8.10;98.40
16412;DHT22;8315;52.104;6.304;2022-09-21T02:20:58;8.10;98.40
16412;DHT22;8315;52.104;6.304;2022-09-21T02:23:26;8.10;98.40
16412;DHT22;8315;52.104;6.304;2022-09-21T02:26:01;8.10;98.40
16412;DHT22;8315;52.104;6.304;2022-09-21T02:28:31;8.10;98.40
16412;DHT22;8315;52.104;6.304;2022-09-21T02:31:05;8.00;98.40
16412;DHT22;8315;52.104;6.304;2022-09-21T02:33:40;8.10;98.40
16412;DHT22;8315;52.104;6.304;2022-09-21T02:36:14;8.10;98.40
16412;DHT22;8315;52.104;6.304;2022-09-21T02:38:46;8.10;98.40
16412;DHT22;8315;52.104;6.304;2022-09-21T02:41:16;8.00;98.40
16412;DHT22;8315;52.104;6.304;2022-09-21T02:43:46;7.90;98.40
16412;DHT22;8315;52.104;6.304;2022-09-21T02:46:18;7.90;98.40
16412;DHT22;8315;52.104;6.304;2022-09-21T02:48:49;7.90;98.40
16412;DHT22;8315;52.104;6.304;2022-09-21T02:51:18;7.80;98.40
16412;DHT22;8315;52.104;6.304;2022-09-21T02:53:48;7.80;98.40
16412;DHT22;8315;52.104;6.304;2022-09-21T02:56:16;7.90;98.40
16412;DHT22;8315;52.104;6.304;2022-09-21T02:58:44;7.90;98.40
16412;DHT22;8315;52.104;6.304;2022-09-21T03:01:13;7.80;98.40
16412;DHT22;8315;52.104;6.304;2022-09-21T03:03:42;7.80;98.40
16412;DHT22;8315;52.104;6.304;2022-09-21T03:06:09;7.80;98.40
16412;DHT22;8315;52.104;6.304;2022-09-21T03:08:36;7.80;98.40
16412;DHT22;8315;52.104;6.304;2022-09-21T03:11:02;7.80;98.40
16412;DHT22;8315;52.104;6.304;2022-09-21T03:13:29;7.80;98.40
16412;DHT22;8315;52.104;6.304;2022-09-21T03:15:59;7.80;98.40
16412;DHT22;8315;52.104;6.304;2022-09-21T03:18:27;7.70;98.40
16412;DHT22;8315;52.104;6.304;2022-09-21T03:20:56;7.70;98.40
16412;DHT22;8315;52.104;6.304;2022-09-21T03:23:23;7.60;98.40
16412;DHT22;8315;52.104;6.304;2022-09-21T03:25:50;7.60;98.40
16412;DHT22;8315;52.104;6.304;2022-09-21T03:28:19;7.50;98.40
16412;DHT22;8315;52.104;6.304;2022-09-21T03:30:47;7.50;98.40
16412;DHT22;8315;52.104;6.304;2022-09-21T03:33:14;7.50;98.40
16412;DHT22;8315;52.104;6.304;2022-09-21T03:35:41;7.40;98.40
16412;DHT22;8315;52.104;6.304;2022-09-21T03:38:09;7.50;98.40
16412;DHT22;8315;52.104;6.304;2022-09-21T03:40:36;7.50;98.40
16412;DHT22;8315;52.104;6.304;2022-09-21T03:43:03;7.40;98.40
16412;DHT22;8315;52.104;6.304;2022-09-21T03:45:29;7.40;98.40
16412;DHT22;8315;52.104;6.304;2022-09-21T03:47:56;7.30;98.40
16412;DHT22;8315;52.104;6.304;2022-09-21T03:50:25;7.30;98.40
16412;DHT22;8315;52.104;6.304;2022-09-21T03:52:53;7.30;98.40
16412;DHT22;8315;52.104;6.304;2022-09-21T03:55:21;7.20;98.40
16412;DHT22;8315;52.104;6.304;2022-09-21T03:57:48;7.20;98.40
16412;DHT22;8315;52.104;6.304;2022-09-21T04:00:15;7.20;98.40
16412;DHT22;8315;52.104;6.304;2022-09-21T04:02:42;7.20;98.40
16412;DHT22;8315;52.104;6.304;2022-09-21T04:05:11;7.10;98.40
16412;DHT22;8315;52.104;6.304;2022-09-21T04:07:39;7.10;98.40
16412;DHT22;8315;52.104;6.304;2022-09-21T04:10:07;7.00;98.40
16412;DHT22;8315;52.104;6.304;2022-09-21T04:12:38;7.00;98.40
16412;DHT22;8315;52.104;6.304;2022-09-21T04:15:09;7.10;98.40
16412;DHT22;8315;52.104;6.304;2022-09-21T04:17:36;7.10;98.40
16412;DHT22;8315;52.104;6.304;2022-09-21T04:20:04;7.00;98.40
16412;DHT22;8315;52.104;6.304;2022-09-21T04:22:31;7.00;98.40
16412;DHT22;8315;52.104;6.304;2022-09-21T04:24:59;7.00;98.40
16412;DHT22;8315;52.104;6.304;2022-09-21T04:27:26;6.90;98.40
16412;DHT22;8315;52.104;6.304;2022-09-21T04:29:54;6.90;98.40
16412;DHT22;8315;52.104;6.304;2022-09-21T04:32:20;6.90;98.40
16412;DHT22;8315;52.104;6.304;2022-09-21T04:34:47;6.90;98.40
16412;DHT22;8315;52.104;6.304;2022-09-21T04:37:14;6.90;98.40
16412;DHT22;8315;52.104;6.304;2022-09-21T04:39:41;6.80;98.40
16412;DHT22;8315;52.104;6.304;2022-09-21T04:42:08;6.80;98.40
16412;DHT22;8315;52.104;6.304;2022-09-21T04:44:35;6.80;98.40
16412;DHT22;8315;52.104;6.304;2022-09-21T04:47:03;6.70;98.40
16412;DHT22;8315;52.104;6.304;2022-09-21T04:49:30;6.70;98.40
16412;DHT22;8315;52.104;6.304;2022-09-21T04:51:57;6.70;98.40
16412;DHT22;8315;52.104;6.304;2022-09-21T04:54:24;6.80;98.40
16412;DHT22;8315;52.104;6.304;2022-09-21T04:56:51;6.80;98.40
16412;DHT22;8315;52.104;6.304;2022-09-21T04:59:18;6.80;98.40
16412;DHT22;8315;52.104;6.304;2022-09-21T05:01:44;6.80;98.40
16412;DHT22;8315;52.104;6.304;2022-09-21T05:04:13;6.70;98.40
16412;DHT22;8315;52.104;6.304;2022-09-21T05:06:40;6.70;98.40
16412;DHT22;8315;52.104;6.304;2022-09-21T05:09:07;6.60;98.40
16412;DHT22;8315;52.104;6.304;2022-09-21T05:11:51;6.70;98.40
16412;DHT22;8315;52.104;6.304;2022-09-21T05:14:18;6.70;98.40
16412;DHT22;8315;52.104;6.304;2022-09-21T05:16:45;6.70;98.40
16412;DHT22;8315;52.104;6.304;2022-09-21T05:19:15;6.70;98.40
16412;DHT22;8315;52.104;6.304;2022-09-21T05:21:42;6.70;98.40
16412;DHT22;8315;52.104;6.304;2022-09-21T05:24:09;6.70;98.40
16412;DHT22;8315;52.104;6.304;2022-09-21T05:26:36;6.60;98.40
16412;DHT22;8315;52.104;6.304;2022-09-21T05:29:03;6.50;98.40
16412;DHT22;8315;52.104;6.304;2022-09-21T05:31:40;6.50;98.40
16412;DHT22;8315;52.104;6.304;2022-09-21T05:34:15;6.50;98.40
16412;DHT22;8315;52.104;6.304;2022-09-21T05:36:47;6.50;98.40
16412;DHT22;8315;52.104;6.304;2022-09-21T05:39:18;6.40;98.40
16412;DHT22;8315;52.104;6.304;2022-09-21T05:41:45;6.40;98.40
16412;DHT22;8315;52.104;6.304;2022-09-21T05:44:12;6.40;98.40
16412;DHT22;8315;52.104;6.304;2022-09-21T05:46:40;6.50;98.40
16412;DHT22;8315;52.104;6.304;2022-09-21T05:49:11;6.50;98.40
16412;DHT22;8315;52.104;6.304;2022-09-21T05:51:46;6.60;98.40
16412;DHT22;8315;52.104;6.304;2022-09-21T05:54:20;6.60;98.40
16412;DHT22;8315;52.104;6.304;2022-09-21T05:56:50;6.60;98.40
16412;DHT22;8315;52.104;6.304;2022-09-21T05:59:34;6.60;98.40
16412;DHT22;8315;52.104;6.304;2022-09-21T06:02:07;6.60;98.40
16412;DHT22;8315;52.104;6.304;2022-09-21T06:04:41;6.60;98.40
16412;DHT22;8315;52.104;6.304;2022-09-21T06:07:09;6.50;98.40
16412;DHT22;8315;52.104;6.304;2022-09-21T06:09:36;6.60;98.40
16412;DHT22;8315;52.104;6.304;2022-09-21T06:12:03;6.60;98.40
16412;DHT22;8315;52.104;6.304;2022-09-21T06:14:30;6.70;98.40
16412;DHT22;8315;52.104;6.304;2022-09-21T06:16:58;6.70;98.40
16412;DHT22;8315;52.104;6.304;2022-09-21T06:19:24;6.70;98.40
16412;DHT22;8315;52.104;6.304;2022-09-21T06:21:51;6.70;98.40
16412;DHT22;8315;52.104;6.304;2022-09-21T06:24:19;6.60;98.40
16412;DHT22;8315;52.104;6.304;2022-09-21T06:26:46;6.60;98.40
16412;DHT22;8315;52.104;6.304;2022-09-21T06:29:13;6.80;98.40
16412;DHT22;8315;52.104;6.304;2022-09-21T06:31:39;6.90;98.40
16412;DHT22;8315;52.104;6.304;2022-09-21T06:34:06;7.00;98.40
16412;DHT22;8315;52.104;6.304;2022-09-21T06:36:33;7.10;98.40
16412;DHT22;8315;52.104;6.304;2022-09-21T06:39:00;7.10;98.40
16412;DHT22;8315;52.104;6.304;2022-09-21T06:41:28;7.30;98.40
16412;DHT22;8315;52.104;6.304;2022-09-21T06:43:57;7.30;98.40
16412;DHT22;8315;52.104;6.304;2022-09-21T06:46:24;7.30;98.40
16412;DHT22;8315;52.104;6.304;2022-09-21T06:48:51;7.40;98.40
16412;DHT22;8315;52.104;6.304;2022-09-21T06:51:18;7.40;98.40
16412;DHT22;8315;52.104;6.304;2022-09-21T06:53:46;7.50;98.40
16412;DHT22;8315;52.104;6.304;2022-09-21T06:56:13;7.60;98.40
16412;DHT22;8315;52.104;6.304;2022-09-21T06:58:41;7.70;98.40
16412;DHT22;8315;52.104;6.304;2022-09-21T07:01:09;7.80;98.40
16412;DHT22;8315;52.104;6.304;2022-09-21T07:03:37;7.90;98.40
16412;DHT22;8315;52.104;6.304;2022-09-21T07:06:05;8.00;98.40
16412;DHT22;8315;52.104;6.304;2022-09-21T07:08:32;8.00;98.40
16412;DHT22;8315;52.104;6.304;2022-09-21T07:10:59;8.20;98.40
16412;DHT22;8315;52.104;6.304;2022-09-21T07:13:27;8.20;98.40
16412;DHT22;8315;52.104;6.304;2022-09-21T07:15:55;8.30;98.40
16412;DHT22;8315;52.104;6.304;2022-09-21T07:18:22;8.40;98.40
16412;DHT22;8315;52.104;6.304;2022-09-21T07:20:49;8.50;98.40
16412;DHT22;8315;52.104;6.304;2022-09-21T07:23:16;8.60;98.40
16412;DHT22;8315;52.104;6.304;2022-09-21T07:25:45;8.70;98.40
16412;DHT22;8315;52.104;6.304;2022-09-21T07:28:13;8.90;98.40
16412;DHT22;8315;52.104;6.304;2022-09-21T07:30:40;8.90;98.40
16412;DHT22;8315;52.104;6.304;2022-09-21T07:33:08;9.00;98.40
16412;DHT22;8315;52.104;6.304;2022-09-21T07:35:35;9.10;98.40
16412;DHT22;8315;52.104;6.304;2022-09-21T07:38:04;9.20;98.40
16412;DHT22;8315;52.104;6.304;2022-09-21T07:40:32;9.20;98.40
16412;DHT22;8315;52.104;6.304;2022-09-21T07:42:59;9.30;98.40
16412;DHT22;8315;52.104;6.304;2022-09-21T07:45:27;9.40;98.40
16412;DHT22;8315;52.104;6.304;2022-09-21T07:47:55;9.50;98.40
16412;DHT22;8315;52.104;6.304;2022-09-21T07:50:23;9.60;98.40
16412;DHT22;8315;52.104;6.304;2022-09-21T07:52:50;9.70;98.40
16412;DHT22;8315;52.104;6.304;2022-09-21T07:55:16;9.90;98.40
16412;DHT22;8315;52.104;6.304;2022-09-21T07:57:43;9.90;98.40
16412;DHT22;8315;52.104;6.304;2022-09-21T08:00:28;10.10;98.40
16412;DHT22;8315;52.104;6.304;2022-09-21T08:02:57;10.30;98.40
16412;DHT22;8315;52.104;6.304;2022-09-21T08:05:25;10.40;98.40
16412;DHT22;8315;52.104;6.304;2022-09-21T08:07:53;10.60;98.40
16412;DHT22;8315;52.104;6.304;2022-09-21T08:10:20;10.70;98.40
16412;DHT22;8315;52.104;6.304;2022-09-21T08:12:47;10.80;98.40
16412;DHT22;8315;52.104;6.304;2022-09-21T08:15:14;11.00;98.40
16412;DHT22;8315;52.104;6.304;2022-09-21T08:17:42;11.10;98.40
16412;DHT22;8315;52.104;6.304;2022-09-21T08:20:09;11.20;98.40
16412;DHT22;8315;52.104;6.304;2022-09-21T08:22:37;11.40;98.40
16412;DHT22;8315;52.104;6.304;2022-09-21T08:25:04;11.50;98.40
16412;DHT22;8315;52.104;6.304;2022-09-21T08:27:31;11.60;98.40
16412;DHT22;8315;52.104;6.304;2022-09-21T08:29:58;11.80;98.40
16412;DHT22;8315;52.104;6.304;2022-09-21T08:32:26;11.90;98.40
16412;DHT22;8315;52.104;6.304;2022-09-21T08:34:54;11.90;98.40
16412;DHT22;8315;52.104;6.304;2022-09-21T08:37:21;12.00;98.40
16412;DHT22;8315;52.104;6.304;2022-09-21T08:39:49;12.10;98.40
16412;DHT22;8315;52.104;6.304;2022-09-21T08:42:26;12.30;98.40
16412;DHT22;8315;52.104;6.304;2022-09-21T08:45:01;12.40;98.40
16412;DHT22;8315;52.104;6.304;2022-09-21T08:47:34;12.60;98.40
16412;DHT22;8315;52.104;6.304;2022-09-21T08:50:04;12.80;98.40
16412;DHT22;8315;52.104;6.304;2022-09-21T08:52:39;13.10;98.40
16412;DHT22;8315;52.104;6.304;2022-09-21T08:55:11;13.30;98.40
16412;DHT22;8315;52.104;6.304;2022-09-21T08:57:42;13.10;98.40
16412;DHT22;8315;52.104;6.304;2022-09-21T09:00:12;13.00;98.40
16412;DHT22;8315;52.104;6.304;2022-09-21T09:02:44;13.10;98.40
16412;DHT22;8315;52.104;6.304;2022-09-21T09:05:26;13.10;98.40
16412;DHT22;8315;52.104;6.304;2022-09-21T09:08:09;13.20;98.40
16412;DHT22;8315;52.104;6.304;2022-09-21T09:10:48;13.30;98.40
16412;DHT22;8315;52.104;6.304;2022-09-21T09:13:27;13.40;98.40
16412;DHT22;8315;52.104;6.304;2022-09-21T09:16:03;13.30;98.40
16412;DHT22;8315;52.104;6.304;2022-09-21T09:18:37;13.40;98.40
16412;DHT22;8315;52.104;6.304;2022-09-21T09:21:09;13.50;98.40
16412;DHT22;8315;52.104;6.304;2022-09-21T09:23:39;13.50;98.40
16412;DHT22;8315;52.104;6.304;2022-09-21T09:26:10;13.50;98.40
16412;DHT22;8315;52.104;6.304;2022-09-21T09:28:41;13.50;98.40
16412;DHT22;8315;52.104;6.304;2022-09-21T09:31:11;13.50;98.40
16412;DHT22;8315;52.104;6.304;2022-09-21T09:33:44;13.60;98.40
16412;DHT22;8315;52.104;6.304;2022-09-21T09:36:15;13.70;98.40
16412;DHT22;8315;52.104;6.304;2022-09-21T09:38:43;13.80;98.40
16412;DHT22;8315;52.104;6.304;2022-09-21T09:41:30;13.80;98.40
16412;DHT22;8315;52.104;6.304;2022-09-21T09:44:13;13.80;98.40
16412;DHT22;8315;52.104;6.304;2022-09-21T09:46:48;13.80;98.40
16412;DHT22;8315;52.104;6.304;2022-09-21T09:49:24;13.80;98.40
16412;DHT22;8315;52.104;6.304;2022-09-21T09:51:56;14.00;98.40
16412;DHT22;8315;52.104;6.304;2022-09-21T09:54:25;14.10;98.40
16412;DHT22;8315;52.104;6.304;2022-09-21T09:56:54;14.00;98.40
16412;DHT22;8315;52.104;6.304;2022-09-21T09:59:22;14.00;98.40
16412;DHT22;8315;52.104;6.304;2022-09-21T10:01:59;13.90;98.40
16412;DHT22;8315;52.104;6.304;2022-09-21T10:04:28;14.00;98.40
16412;DHT22;8315;52.104;6.304;2022-09-21T10:06:55;14.10;98.40
16412;DHT22;8315;52.104;6.304;2022-09-21T10:09:23;14.10;98.40
16412;DHT22;8315;52.104;6.304;2022-09-21T10:11:51;14.10;98.40
16412;DHT22;8315;52.104;6.304;2022-09-21T10:14:21;14.10;98.40
16412;DHT22;8315;52.104;6.304;2022-09-21T10:16:49;14.10;98.40
16412;DHT22;8315;52.104;6.304;2022-09-21T10:19:18;14.10;98.40
16412;DHT22;8315;52.104;6.304;2022-09-21T10:21:46;14.10;98.40
16412;DHT22;8315;52.104;6.304;2022-09-21T10:24:14;14.20;98.40
16412;DHT22;8315;52.104;6.304;2022-09-21T10:26:47;14.20;98.40
16412;DHT22;8315;52.104;6.304;2022-09-21T10:29:18;14.20;98.40
16412;DHT22;8315;52.104;6.304;2022-09-21T10:31:57;14.30;98.40
16412;DHT22;8315;52.104;6.304;2022-09-21T10:34:25;14.30;98.40
16412;DHT22;8315;52.104;6.304;2022-09-21T10:36:53;14.30;98.40
16412;DHT22;8315;52.104;6.304;2022-09-21T10:39:23;14.20;98.40
16412;DHT22;8315;52.104;6.304;2022-09-21T10:41:53;14.20;98.40
16412;DHT22;8315;52.104;6.304;2022-09-21T10:44:24;14.20;98.40
16412;DHT22;8315;52.104;6.304;2022-09-21T10:46:53;14.30;98.40
16412;DHT22;8315;52.104;6.304;2022-09-21T10:49:21;14.40;98.40
16412;DHT22;8315;52.104;6.304;2022-09-21T10:51:49;14.50;98.40
16412;DHT22;8315;52.104;6.304;2022-09-21T10:54:19;14.60;98.40
16412;DHT22;8315;52.104;6.304;2022-09-21T10:56:50;14.80;98.40
16412;DHT22;8315;52.104;6.304;2022-09-21T10:59:19;15.00;98.40
16412;DHT22;8315;52.104;6.304;2022-09-21T11:01:49;15.10;98.40
16412;DHT22;8315;52.104;6.304;2022-09-21T11:04:21;15.20;98.40
16412;DHT22;8315;52.104;6.304;2022-09-21T11:06:53;15.30;98.40
16412;DHT22;8315;52.104;6.304;2022-09-21T11:09:24;15.40;98.40
16412;DHT22;8315;52.104;6.304;2022-09-21T11:11:55;15.50;98.40
16412;DHT22;8315;52.104;6.304;2022-09-21T11:14:34;15.60;98.40
16412;DHT22;8315;52.104;6.304;2022-09-21T11:17:08;15.60;98.40
16412;DHT22;8315;52.104;6.304;2022-09-21T11:19:39;15.70;98.40
16412;DHT22;8315;52.104;6.304;2022-09-21T11:22:09;15.70;97.30
16412;DHT22;8315;52.104;6.304;2022-09-21T11:24:40;15.70;93.70
16412;DHT22;8315;52.104;6.304;2022-09-21T11:27:12;15.80;94.70
16412;DHT22;8315;52.104;6.304;2022-09-21T11:29:46;15.90;92.40
16412;DHT22;8315;52.104;6.304;2022-09-21T11:32:26;16.00;94.40
16412;DHT22;8315;52.104;6.304;2022-09-21T11:35:05;16.10;92.60
16412;DHT22;8315;52.104;6.304;2022-09-21T11:37:48;16.10;91.10
16412;DHT22;8315;52.104;6.304;2022-09-21T11:40:23;16.10;90.50
16412;DHT22;8315;52.104;6.304;2022-09-21T11:42:58;16.10;88.10
16412;DHT22;8315;52.104;6.304;2022-09-21T11:45:44;16.20;87.20
16412;DHT22;8315;52.104;6.304;2022-09-21T11:48:17;16.20;86.80
16412;DHT22;8315;52.104;6.304;2022-09-21T11:50:52;16.10;87.20
16412;DHT22;8315;52.104;6.304;2022-09-21T11:53:34;16.10;88.50
16412;DHT22;8315;52.104;6.304;2022-09-21T11:56:16;16.10;90.00
16412;DHT22;8315;52.104;6.304;2022-09-21T11:59:01;16.20;90.50
16412;DHT22;8315;52.104;6.304;2022-09-21T12:01:37;16.10;91.40
16412;DHT22;8315;52.104;6.304;2022-09-21T12:07:02;15.80;89.90
16412;DHT22;8315;52.104;6.304;2022-09-21T12:09:42;15.80;88.50
16412;DHT22;8315;52.104;6.304;2022-09-21T12:12:19;15.80;88.20
16412;DHT22;8315;52.104;6.304;2022-09-21T12:14:49;15.80;90.10
16412;DHT22;8315;52.104;6.304;2022-09-21T12:17:23;15.90;91.20
16412;DHT22;8315;52.104;6.304;2022-09-21T12:19:55;15.90;92.20
16412;DHT22;8315;52.104;6.304;2022-09-21T12:22:28;16.00;92.10
16412;DHT22;8315;52.104;6.304;2022-09-21T12:24:58;16.00;92.40
16412;DHT22;8315;52.104;6.304;2022-09-21T12:27:28;16.10;94.10
16412;DHT22;8315;52.104;6.304;2022-09-21T12:30:01;16.30;91.90
16412;DHT22;8315;52.104;6.304;2022-09-21T12:32:32;16.30;89.80
16412;DHT22;8315;52.104;6.304;2022-09-21T12:35:14;16.40;90.50
16412;DHT22;8315;52.104;6.304;2022-09-21T12:37:45;16.60;89.60
16412;DHT22;8315;52.104;6.304;2022-09-21T12:40:15;16.60;89.00
16412;DHT22;8315;52.104;6.304;2022-09-21T12:42:47;16.80;90.80
16412;DHT22;8315;52.104;6.304;2022-09-21T12:45:16;16.90;89.80
16412;DHT22;8315;52.104;6.304;2022-09-21T12:47:48;17.00;88.30
16412;DHT22;8315;52.104;6.304;2022-09-21T12:50:22;17.20;93.10
16412;DHT22;8315;52.104;6.304;2022-09-21T12:52:53;17.20;87.60
16412;DHT22;8315;52.104;6.304;2022-09-21T12:55:29;17.30;89.60
16412;DHT22;8315;52.104;6.304;2022-09-21T12:58:02;17.40;87.00
16412;DHT22;8315;52.104;6.304;2022-09-21T13:00:34;17.40;86.30
16412;DHT22;8315;52.104;6.304;2022-09-21T13:03:10;17.50;87.90
16412;DHT22;8315;52.104;6.304;2022-09-21T13:05:42;17.70;87.80
16412;DHT22;8315;52.104;6.304;2022-09-21T13:08:23;17.70;87.40
16412;DHT22;8315;52.104;6.304;2022-09-21T13:10:55;17.70;85.70
16412;DHT22;8315;52.104;6.304;2022-09-21T13:13:25;17.70;86.70
16412;DHT22;8315;52.104;6.304;2022-09-21T13:15:54;17.80;86.90
16412;DHT22;8315;52.104;6.304;2022-09-21T13:18:24;17.70;88.70
16412;DHT22;8315;52.104;6.304;2022-09-21T13:20:52;17.80;85.80
16412;DHT22;8315;52.104;6.304;2022-09-21T13:23:22;17.80;86.40
16412;DHT22;8315;52.104;6.304;2022-09-21T13:25:58;17.80;85.40
16412;DHT22;8315;52.104;6.304;2022-09-21T13:31:50;18.00;85.30
16412;DHT22;8315;52.104;6.304;2022-09-21T13:34:29;18.10;85.30
16412;DHT22;8315;52.104;6.304;2022-09-21T13:43:14;18.00;85.70
16412;DHT22;8315;52.104;6.304;2022-09-21T13:45:53;18.10;85.10
16412;DHT22;8315;52.104;6.304;2022-09-21T13:48:23;18.30;86.10
16412;DHT22;8315;52.104;6.304;2022-09-21T13:50:55;18.40;82.60
16412;DHT22;8315;52.104;6.304;2022-09-21T13:53:24;18.50;82.40
16412;DHT22;8315;52.104;6.304;2022-09-21T13:55:58;18.60;84.70
16412;DHT22;8315;52.104;6.304;2022-09-21T13:58:28;18.50;82.60
16412;DHT22;8315;52.104;6.304;2022-09-21T14:00:57;18.40;81.90
16412;DHT22;8315;52.104;6.304;2022-09-21T14:03:26;18.40;79.00
16412;DHT22;8315;52.104;6.304;2022-09-21T14:05:59;18.30;80.40
16412;DHT22;8315;52.104;6.304;2022-09-21T14:08:27;18.50;80.60
16412;DHT22;8315;52.104;6.304;2022-09-21T14:10:57;18.60;81.90
16412;DHT22;8315;52.104;6.304;2022-09-21T14:13:32;18.80;81.60
16412;DHT22;8315;52.104;6.304;2022-09-21T14:18:53;19.20;82.70
16412;DHT22;8315;52.104;6.304;2022-09-21T14:21:20;19.20;80.80
16412;DHT22;8315;52.104;6.304;2022-09-21T14:26:52;19.20;80.40
16412;DHT22;8315;52.104;6.304;2022-09-21T14:29:25;19.00;78.80
16412;DHT22;8315;52.104;6.304;2022-09-21T14:31:58;18.90;80.60
16412;DHT22;8315;52.104;6.304;2022-09-21T14:34:29;19.20;80.90
16412;DHT22;8315;52.104;6.304;2022-09-21T14:36:57;19.30;77.50
16412;DHT22;8315;52.104;6.304;2022-09-21T14:39:28;19.60;78.10
16412;DHT22;8315;52.104;6.304;2022-09-21T14:41:59;19.70;76.00
16412;DHT22;8315;52.104;6.304;2022-09-21T14:44:28;19.80;77.30
16412;DHT22;8315;52.104;6.304;2022-09-21T14:46:59;20.00;75.80
16412;DHT22;8315;52.104;6.304;2022-09-21T14:49:54;20.40;75.50
16412;DHT22;8315;52.104;6.304;2022-09-21T14:52:31;19.90;73.80
16412;DHT22;8315;52.104;6.304;2022-09-21T14:55:10;19.60;74.70
16412;DHT22;8315;52.104;6.304;2022-09-21T14:57:44;19.70;76.10
16412;DHT22;8315;52.104;6.304;2022-09-21T15:00:35;19.90;74.50
16412;DHT22;8315;52.104;6.304;2022-09-21T15:06:01;20.10;74.20
16412;DHT22;8315;52.104;6.304;2022-09-21T15:09:00;20.00;75.10
16412;DHT22;8315;52.104;6.304;2022-09-21T15:12:00;19.40;73.10
16412;DHT22;8315;52.104;6.304;2022-09-21T15:14:36;19.60;72.70
16412;DHT22;8315;52.104;6.304;2022-09-21T15:17:20;20.00;72.70
16412;DHT22;8315;52.104;6.304;2022-09-21T15:19:49;20.40;73.10
16412;DHT22;8315;52.104;6.304;2022-09-21T15:22:16;20.30;73.70
16412;DHT22;8315;52.104;6.304;2022-09-21T15:24:49;20.10;72.30
16412;DHT22;8315;52.104;6.304;2022-09-21T15:27:16;20.50;73.30
16412;DHT22;8315;52.104;6.304;2022-09-21T15:29:45;20.80;72.90
16412;DHT22;8315;52.104;6.304;2022-09-21T15:32:15;20.70;71.50
16412;DHT22;8315;52.104;6.304;2022-09-21T15:34:56;20.70;71.70
16412;DHT22;8315;52.104;6.304;2022-09-21T15:37:25;21.30;72.40
16412;DHT22;8315;52.104;6.304;2022-09-21T15:39:57;21.00;70.90
16412;DHT22;8315;52.104;6.304;2022-09-21T15:42:25;20.80;71.40
16412;DHT22;8315;52.104;6.304;2022-09-21T15:44:53;20.50;72.00
16412;DHT22;8315;52.104;6.304;2022-09-21T15:47:31;20.80;72.90
16412;DHT22;8315;52.104;6.304;2022-09-21T15:49:58;21.10;71.80
16412;DHT22;8315;52.104;6.304;2022-09-21T15:52:26;21.40;70.00
16412;DHT22;8315;52.104;6.304;2022-09-21T15:54:57;21.50;70.70
16412;DHT22;8315;52.104;6.304;2022-09-21T15:57:28;21.60;70.80
16412;DHT22;8315;52.104;6.304;2022-09-21T15:59:58;21.80;70.20
16412;DHT22;8315;52.104;6.304;2022-09-21T16:02:27;22.00;68.50
16412;DHT22;8315;52.104;6.304;2022-09-21T16:05:00;21.90;69.60
16412;DHT22;8315;52.104;6.304;2022-09-21T16:07:29;21.50;69.20
16412;DHT22;8315;52.104;6.304;2022-09-21T16:09:57;21.50;68.40
16412;DHT22;8315;52.104;6.304;2022-09-21T16:12:38;21.50;68.10
16412;DHT22;8315;52.104;6.304;2022-09-21T16:15:07;21.50;71.60
16412;DHT22;8315;52.104;6.304;2022-09-21T16:17:51;21.70;69.80
16412;DHT22;8315;52.104;6.304;2022-09-21T16:20:20;21.40;67.60
16412;DHT22;8315;52.104;6.304;2022-09-21T16:22:48;21.10;70.40
16412;DHT22;8315;52.104;6.304;2022-09-21T16:25:21;21.10;68.20
16412;DHT22;8315;52.104;6.304;2022-09-21T16:27:51;21.30;69.00
16412;DHT22;8315;52.104;6.304;2022-09-21T16:33:38;21.50;69.10
16412;DHT22;8315;52.104;6.304;2022-09-21T16:38:59;21.70;69.00
16412;DHT22;8315;52.104;6.304;2022-09-21T16:41:31;21.80;70.10
16412;DHT22;8315;52.104;6.304;2022-09-21T16:43:59;21.50;70.50